Página principal
METAR-TAF:

METAR-TAF

Aeroportos :

Moundou, Chade

latitude: 08-37N, longitude: 016-04E, altura: 428 m

Observação actual do tempo

O boletim foi feito há 44 minutos, às 15:00 UTC
Vento 4 kt de noroeste
Temperatura 32°C
Humidade 43%
Pressão 1009 hPa
Visibilidade 10 km ou mais
Poucas nuvensa uma altura de 3000 ft

METAR: FTTD 221500Z 32004KT 9999 FEW030 32/18 Q1009

Hora: 16:44 (15:44 UTC)


TAF: em falta

Observações e previsões do tempo de mais de 4000 aeroportos (mensagens METAR e TAF).

As estações disponíveis são os pontos amarelos e vermelhos sobre o mapa.

Mova o rato sobre o mapa para ver o nome da estação.

Depois clique no ponto para visualizar as observações e previsões meteorológicas.

Para alterar o mapa : clique nos botões verdes com uma cruz preta para aumentar o zoom; no botão verde com uma pitada de zoom; ou nas setas verdes para mapas adjacentes.


METAR-TAF: